Time;durP1;ratioP1;P1;durP2;ratioP2;P2;SDS_P1;SDS_P2;PMS_P1;PMS_P2;Temp;Humidity;BMP_temperature;BMP_pressure;BME280_temperature;BME280_humidity;BME280_pressure;Samples;Min_cycle;Max_cycle;Signal;HPM_P1;HPM_P2
2021/09/01 00:00:13;;;;;;;9.95;7.32;;;13.70;95.80;;;;;;5057911;28;20021;-89
2021/09/01 00:02:40;;;;;;;10.35;7.30;;;13.80;95.80;;;;;;5057410;28;20020;-89
2021/09/01 00:05:07;;;;;;;12.40;8.35;;;13.80;95.90;;;;;;5057496;28;20039;-90
2021/09/01 00:07:32;;;;;;;9.95;7.32;;;13.70;95.80;;;;;;5057484;28;20115;-90
2021/09/01 00:09:58;;;;;;;13.18;7.72;;;13.70;95.90;;;;;;5057697;28;20445;-89
2021/09/01 00:12:24;;;;;;;8.15;7.00;;;13.70;96.20;;;;;;5057433;28;20103;-90
2021/09/01 00:14:49;;;;;;;10.18;7.18;;;13.60;95.90;;;;;;5057380;28;20017;-89
2021/09/01 00:17:15;;;;;;;9.45;7.35;;;13.50;96.00;;;;;;5057317;28;20078;-89
2021/09/01 00:19:41;;;;;;;9.13;6.70;;;13.60;96.10;;;;;;5057147;28;20043;-90
2021/09/01 00:22:06;;;;;;;9.43;7.20;;;13.50;96.00;;;;;;5057372;28;20418;-90
2021/09/01 00:24:32;;;;;;;8.57;6.93;;;13.50;96.10;;;;;;5057875;28;20028;-90
2021/09/01 00:26:58;;;;;;;9.55;6.45;;;13.40;96.10;;;;;;5057122;28;20024;-90
2021/09/01 00:29:23;;;;;;;8.07;6.47;;;13.40;96.10;;;;;;5056618;28;20024;-91
2021/09/01 00:31:49;;;;;;;9.02;6.25;;;13.40;96.20;;;;;;5057015;28;20497;-90
2021/09/01 00:34:15;;;;;;;9.80;6.50;;;13.40;96.20;;;;;;5056779;28;20020;-89
2021/09/01 00:36:41;;;;;;;6.75;6.00;;;13.30;96.20;;;;;;5056906;28;20031;-89
2021/09/01 00:39:07;;;;;;;7.88;6.05;;;13.30;96.20;;;;;;5056889;28;20426;-90
2021/09/01 00:41:32;;;;;;;8.23;5.60;;;13.20;96.20;;;;;;5057036;28;20024;-90
2021/09/01 00:44:15;;;;;;;6.60;5.70;;;13.10;96.30;;;;;;5056828;28;20170;-89
2021/09/01 00:46:40;;;;;;;6.55;5.70;;;13.10;96.50;;;;;;5057335;28;20098;-90
2021/09/01 00:49:06;;;;;;;9.10;5.80;;;13.10;96.30;;;;;;5056773;28;20033;-90
2021/09/01 00:51:31;;;;;;;9.25;6.07;;;13.00;96.30;;;;;;5056597;28;20032;-89
2021/09/01 00:53:58;;;;;;;6.72;5.63;;;13.00;96.30;;;;;;5056670;28;20363;-89
2021/09/01 00:56:24;;;;;;;8.13;5.55;;;12.90;96.20;;;;;;5056479;28;20048;-89
2021/09/01 00:58:50;;;;;;;32.10;5.70;;;12.80;96.30;;;;;;5056442;28;20101;-90
2021/09/01 01:01:17;;;;;;;6.72;6.03;;;12.80;96.30;;;;;;5056822;28;20485;-91
2021/09/01 01:03:55;;;;;;;13.98;5.93;;;12.80;96.40;;;;;;5056414;28;20029;-91
2021/09/01 01:06:26;;;;;;;7.03;5.78;;;12.80;96.50;;;;;;5056436;28;20123;-91
2021/09/01 01:08:55;;;;;;;6.80;6.10;;;12.80;96.50;;;;;;5056496;28;20028;-91
2021/09/01 01:11:24;;;;;;;8.95;6.15;;;12.80;96.50;;;;;;5056372;28;20028;-90
2021/09/01 01:13:50;;;;;;;14.20;5.95;;;12.90;96.50;;;;;;5056254;28;20394;-90
2021/09/01 01:16:17;;;;;;;9.25;5.47;;;12.90;96.40;;;;;;5056159;28;20032;-90
2021/09/01 01:18:48;;;;;;;7.47;5.35;;;12.80;96.30;;;;;;5055966;28;20043;-90
2021/09/01 01:21:22;;;;;;;14.15;5.43;;;12.70;96.20;;;;;;5056070;28;20020;-90
2021/09/01 01:23:57;;;;;;;12.60;5.55;;;12.50;96.40;;;;;;5056339;28;20024;-90
2021/09/01 01:26:24;;;;;;;13.57;5.80;;;12.50;96.50;;;;;;5056385;28;20027;-90
2021/09/01 01:28:55;;;;;;;8.20;5.28;;;12.50;96.60;;;;;;5056016;28;20070;-90
2021/09/01 01:31:21;;;;;;;6.95;5.45;;;12.40;96.60;;;;;;5055823;28;20486;-90
2021/09/01 01:33:47;;;;;;;6.28;5.68;;;12.40;96.70;;;;;;5056319;28;20479;-91
2021/09/01 01:36:13;;;;;;;17.17;5.88;;;12.40;96.70;;;;;;5055857;28;20120;-90
2021/09/01 01:38:39;;;;;;;6.43;5.43;;;12.40;96.70;;;;;;5055683;28;20483;-89
2021/09/01 01:41:05;;;;;;;7.32;5.97;;;12.40;96.80;;;;;;5055481;28;20227;-90
2021/09/01 01:43:35;;;;;;;6.90;5.32;;;12.40;96.80;;;;;;5055803;28;20028;-90
2021/09/01 01:46:00;;;;;;;7.22;5.15;;;12.40;96.80;;;;;;5055686;28;20036;-90
2021/09/01 01:48:26;;;;;;;10.90;5.82;;;12.30;96.80;;;;;;5056101;28;20028;-90
2021/09/01 01:50:51;;;;;;;5.68;5.15;;;12.40;96.80;;;;;;5055561;28;20064;-90
2021/09/01 01:53:17;;;;;;;11.23;5.28;;;12.40;96.80;;;;;;5055213;28;20120;-90
2021/09/01 01:55:43;;;;;;;12.20;6.47;;;12.40;96.80;;;;;;5055679;28;20025;-90
2021/09/01 01:58:08;;;;;;;7.13;5.68;;;12.30;96.70;;;;;;5055851;28;20020;-90
2021/09/01 02:00:34;;;;;;;14.52;7.45;;;12.40;96.70;;;;;;5055226;28;20025;-91
2021/09/01 02:03:00;;;;;;;9.85;7.43;;;12.30;96.70;;;;;;5055716;28;20025;-91
2021/09/01 02:05:26;;;;;;;11.48;7.55;;;12.30;96.70;;;;;;5055960;28;20029;-91
2021/09/01 02:07:51;;;;;;;10.57;7.50;;;12.20;96.70;;;;;;5056093;28;20033;-90
2021/09/01 02:10:18;;;;;;;9.55;7.32;;;12.20;96.80;;;;;;5110041;22;20037;-67
2021/09/01 02:12:44;;;;;;;14.07;7.70;;;12.20;96.80;;;;;;5049057;28;20707;-67
2021/09/01 02:15:11;;;;;;;14.43;7.10;;;12.20;96.80;;;;;;5048259;28;20021;-67
2021/09/01 02:17:37;;;;;;;8.57;6.45;;;12.20;96.70;;;;;;5049647;28;20032;-66
2021/09/01 02:20:04;;;;;;;11.48;7.15;;;12.30;96.80;;;;;;5049921;28;20052;-67
2021/09/01 02:22:30;;;;;;;10.50;6.70;;;12.20;96.80;;;;;;5050290;28;20480;-67
2021/09/01 02:24:56;;;;;;;9.25;6.10;;;12.20;96.80;;;;;;5048648;28;20044;-67
2021/09/01 02:27:22;;;;;;;7.97;5.63;;;12.20;96.70;;;;;;5049499;28;20056;-67
2021/09/01 02:29:47;;;;;;;7.32;5.30;;;12.20;96.80;;;;;;5048985;28;20063;-68
2021/09/01 02:32:13;;;;;;;7.60;5.47;;;12.20;96.70;;;;;;5049884;28;20082;-66
2021/09/01 02:34:39;;;;;;;10.07;5.38;;;12.10;96.70;;;;;;5048671;28;20037;-67
2021/09/01 02:37:04;;;;;;;7.10;5.43;;;12.10;96.60;;;;;;5049503;28;20111;-67
2021/09/01 02:39:30;;;;;;;9.57;5.28;;;12.00;96.70;;;;;;5049614;28;20029;-67
2021/09/01 02:41:55;;;;;;;9.40;5.22;;;12.00;96.70;;;;;;5049735;28;20115;-67
2021/09/01 02:44:21;;;;;;;8.40;5.30;;;11.90;96.60;;;;;;5048749;28;20074;-66
2021/09/01 02:46:47;;;;;;;9.50;5.57;;;11.80;96.60;;;;;;5048057;28;20528;-67
2021/09/01 02:49:13;;;;;;;8.50;5.53;;;11.80;96.60;;;;;;5049783;28;20029;-67
2021/09/01 02:51:38;;;;;;;9.23;5.43;;;11.80;96.70;;;;;;5049552;28;20389;-67
2021/09/01 02:54:04;;;;;;;14.05;6.10;;;11.70;96.60;;;;;;5049129;28;20476;-67
2021/09/01 02:56:30;;;;;;;8.82;5.75;;;11.70;96.60;;;;;;5048230;28;20028;-67
2021/09/01 02:58:55;;;;;;;7.88;5.82;;;11.70;96.60;;;;;;5043855;28;20029;-66
2021/09/01 03:01:21;;;;;;;9.27;5.88;;;11.70;96.70;;;;;;5048789;28;20481;-67
2021/09/01 03:03:46;;;;;;;12.80;5.75;;;11.70;96.70;;;;;;5049794;28;20029;-67
2021/09/01 03:06:12;;;;;;;9.15;6.18;;;11.70;96.60;;;;;;5048648;28;20111;-67
2021/09/01 03:08:38;;;;;;;10.45;6.13;;;11.70;96.60;;;;;;5049375;28;20029;-67
2021/09/01 03:11:03;;;;;;;9.02;6.20;;;11.70;96.60;;;;;;5048678;28;20120;-67
2021/09/01 03:13:29;;;;;;;11.70;6.25;;;11.70;96.70;;;;;;5049306;28;20108;-67
2021/09/01 03:15:55;;;;;;;10.68;5.85;;;11.70;96.60;;;;;;5029067;28;20472;-67
2021/09/01 03:18:20;;;;;;;8.40;5.65;;;11.70;96.60;;;;;;5048774;28;20017;-67
2021/09/01 03:20:46;;;;;;;9.77;5.65;;;11.70;96.70;;;;;;5049365;28;20466;-66
2021/09/01 03:23:12;;;;;;;11.65;5.93;;;11.70;96.70;;;;;;5049691;28;20028;-66
2021/09/01 03:25:37;;;;;;;7.20;5.40;;;11.70;96.70;;;;;;5047874;28;20505;-67
2021/09/01 03:28:03;;;;;;;8.18;5.47;;;11.70;96.70;;;;;;5048404;28;20400;-67
2021/09/01 03:30:29;;;;;;;8.57;5.03;;;11.70;96.70;;;;;;5049691;28;20033;-67
2021/09/01 03:32:56;;;;;;;8.40;5.57;;;11.70;96.70;;;;;;5049508;28;20075;-67
2021/09/01 03:35:22;;;;;;;6.22;5.18;;;11.70;96.70;;;;;;5047641;28;20076;-67
2021/09/01 03:37:48;;;;;;;5.93;4.65;;;11.70;96.70;;;;;;5049356;28;20021;-67
2021/09/01 03:40:14;;;;;;;6.65;5.05;;;11.70;96.60;;;;;;5062469;28;20025;-68
2021/09/01 03:42:40;;;;;;;5.47;4.97;;;11.70;96.70;;;;;;5048567;28;20032;-67
2021/09/01 03:45:06;;;;;;;5.72;4.57;;;11.60;96.60;;;;;;5048408;28;20203;-67
2021/09/01 03:47:33;;;;;;;6.75;4.97;;;11.60;96.30;;;;;;5048968;28;20060;-67
2021/09/01 03:49:59;;;;;;;5.60;4.88;;;11.50;96.70;;;;;;5049149;28;20032;-67
2021/09/01 03:52:24;;;;;;;6.57;4.75;;;11.50;96.70;;;;;;5049017;28;20481;-66
2021/09/01 03:54:50;;;;;;;8.70;5.22;;;11.50;96.70;;;;;;5047663;28;20219;-67
2021/09/01 03:57:16;;;;;;;5.70;5.05;;;11.50;96.60;;;;;;5048190;28;20068;-67
2021/09/01 03:59:41;;;;;;;5.82;4.85;;;11.50;96.70;;;;;;5046576;28;20096;-68
2021/09/01 04:02:07;;;;;;;6.03;4.75;;;11.50;96.80;;;;;;5049394;28;20025;-66
2021/09/01 04:04:34;;;;;;;5.50;4.90;;;11.40;96.70;;;;;;5051635;28;20032;-66
2021/09/01 04:07:00;;;;;;;8.07;5.32;;;11.40;96.80;;;;;;5052788;28;20045;-66
2021/09/01 04:09:26;;;;;;;6.88;4.95;;;11.40;96.80;;;;;;5052669;28;20052;-66
2021/09/01 04:11:51;;;;;;;8.32;4.90;;;11.40;96.90;;;;;;5052391;28;20052;-66
2021/09/01 04:14:17;;;;;;;5.72;4.90;;;11.30;96.80;;;;;;5051162;28;20041;-66
2021/09/01 04:16:42;;;;;;;11.05;5.25;;;11.30;96.80;;;;;;5051388;28;20104;-68
2021/09/01 04:19:08;;;;;;;8.25;5.03;;;11.30;96.90;;;;;;5052918;28;20027;-67
2021/09/01 04:21:33;;;;;;;6.60;4.82;;;11.30;96.90;;;;;;5051082;28;20031;-67
2021/09/01 04:23:59;;;;;;;21.85;9.13;;;11.30;96.90;;;;;;5052270;28;20025;-68
2021/09/01 04:26:24;;;;;;;12.85;7.20;;;11.20;96.90;;;;;;5051299;28;20029;-68
2021/09/01 04:28:50;;;;;;;11.90;6.22;;;11.20;97.00;;;;;;5050762;28;20033;-67
2021/09/01 04:31:16;;;;;;;13.27;4.70;;;11.20;97.10;;;;;;5052573;28;20037;-67
2021/09/01 04:33:41;;;;;;;8.63;4.93;;;11.20;97.10;;;;;;5046405;28;20029;-68
2021/09/01 04:36:07;;;;;;;8.50;5.03;;;11.20;97.10;;;;;;5051414;28;20487;-67
2021/09/01 04:38:32;;;;;;;7.47;4.57;;;11.20;97.10;;;;;;5052278;28;20495;-68
2021/09/01 04:40:58;;;;;;;12.00;6.40;;;11.20;97.20;;;;;;5052135;28;20416;-71
2021/09/01 04:43:23;;;;;;;18.55;6.82;;;11.20;97.30;;;;;;5051274;28;20378;-67
2021/09/01 04:45:49;;;;;;;10.77;6.32;;;11.20;97.20;;;;;;5051023;28;20111;-68
2021/09/01 04:48:14;;;;;;;11.05;5.82;;;11.10;97.10;;;;;;5042823;28;20032;-68
2021/09/01 04:50:41;;;;;;;8.90;5.68;;;11.10;97.20;;;;;;5052691;28;20431;-66
2021/09/01 04:53:07;;;;;;;13.48;6.80;;;11.10;97.30;;;;;;5051728;28;20111;-68
2021/09/01 04:55:32;;;;;;;20.20;9.43;;;11.10;97.30;;;;;;5050103;28;20024;-69
2021/09/01 04:58:00;;;;;;;18.48;7.40;;;11.10;97.30;;;;;;5051383;28;20099;-67
2021/09/01 05:00:25;;;;;;;9.68;5.93;;;11.10;97.30;;;;;;5052153;28;20096;-67
2021/09/01 05:02:51;;;;;;;38.33;14.43;;;11.10;97.30;;;;;;5051730;28;20036;-68
2021/09/01 05:05:16;;;;;;;33.35;12.55;;;11.00;97.30;;;;;;5050748;28;20035;-68
2021/09/01 05:07:42;;;;;;;8.70;4.50;;;11.00;97.50;;;;;;5051842;28;20118;-67
2021/09/01 05:10:08;;;;;;;5.18;4.00;;;10.90;97.50;;;;;;5051272;28;20037;-68
2021/09/01 05:12:34;;;;;;;8.82;4.00;;;10.90;97.60;;;;;;5051072;28;20449;-67
2021/09/01 05:14:59;;;;;;;4.28;3.88;;;10.90;97.60;;;;;;5051031;28;20032;-67
2021/09/01 05:17:25;;;;;;;5.05;3.45;;;10.90;97.60;;;;;;5051912;28;20029;-69
2021/09/01 05:19:51;;;;;;;10.68;4.53;;;10.90;97.60;;;;;;5034384;28;20021;-66
2021/09/01 05:22:19;;;;;;;18.95;7.22;;;10.90;97.60;;;;;;5052117;28;20021;-67
2021/09/01 05:25:03;;;;;;;12.77;4.40;;;10.90;97.60;;;;;;5050636;28;20029;-67
2021/09/01 05:27:31;;;;;;;5.22;3.40;;;10.90;97.70;;;;;;5050797;28;20021;-66
2021/09/01 05:29:58;;;;;;;11.27;3.95;;;10.90;97.60;;;;;;5051817;28;20028;-66
2021/09/01 05:32:26;;;;;;;12.18;4.78;;;10.90;97.70;;;;;;5051883;28;20020;-66
2021/09/01 05:34:55;;;;;;;19.83;6.65;;;10.90;97.70;;;;;;5050919;28;20032;-66
2021/09/01 05:37:22;;;;;;;14.45;6.20;;;10.90;97.70;;;;;;5051679;28;20028;-66
2021/09/01 05:39:50;;;;;;;8.98;5.10;;;10.90;97.80;;;;;;5051663;28;20029;-66
2021/09/01 05:42:21;;;;;;;10.15;5.55;;;11.00;97.80;;;;;;5051146;28;20023;-66
2021/09/01 05:44:48;;;;;;;7.63;4.53;;;11.00;97.80;;;;;;5050850;28;20462;-66
2021/09/01 05:47:15;;;;;;;13.18;5.47;;;11.10;97.70;;;;;;5049464;28;20339;-66
2021/09/01 05:49:43;;;;;;;9.98;5.18;;;11.10;97.80;;;;;;5052095;28;20032;-66
2021/09/01 05:52:10;;;;;;;10.27;4.72;;;11.10;97.70;;;;;;5050818;28;20036;-67
2021/09/01 05:54:38;;;;;;;5.75;4.63;;;11.00;97.60;;;;;;5050456;28;20031;-66
2021/09/01 05:57:39;;;;;;;6.75;4.82;;;11.10;97.70;;;;;;5050853;28;20108;-66
2021/09/01 06:00:13;;;;;;;8.75;5.47;;;11.10;97.90;;;;;;5029289;28;20040;-66
2021/09/01 06:02:47;;;;;;;9.10;5.10;;;11.10;97.80;;;;;;5045604;28;20036;-67
2021/09/01 06:05:13;;;;;;;7.07;5.57;;;11.20;97.80;;;;;;5049908;28;20024;-68
2021/09/01 06:07:49;;;;;;;9.27;6.10;;;11.20;97.80;;;;;;5051365;28;20021;-67
2021/09/01 06:10:17;;;;;;;8.27;5.95;;;11.30;98.00;;;;;;5050859;28;20082;-67
2021/09/01 06:12:47;;;;;;;11.35;5.50;;;11.30;97.90;;;;;;5050534;28;20036;-67
2021/09/01 06:15:13;;;;;;;11.57;5.80;;;11.30;97.90;;;;;;5042101;28;20055;-67
2021/09/01 06:17:43;;;;;;;28.20;6.35;;;11.30;97.90;;;;;;5032514;28;20049;-66
2021/09/01 06:20:10;;;;;;;18.43;5.83;;;11.40;98.00;;;;;;5033154;28;20149;-65
2021/09/01 06:22:36;;;;;;;19.42;7.00;;;11.40;97.70;;;;;;5050807;28;20274;-66
2021/09/01 06:25:02;;;;;;;29.90;7.18;;;11.40;97.70;;;;;;5049878;28;20025;-66
2021/09/01 06:27:28;;;;;;;12.52;6.32;;;11.40;97.70;;;;;;5049313;28;20489;-65
2021/09/01 06:29:53;;;;;;;11.27;7.57;;;11.30;97.70;;;;;;5050637;28;20050;-66
2021/09/01 06:32:19;;;;;;;16.98;7.45;;;11.40;97.90;;;;;;5050896;28;20024;-67
2021/09/01 06:34:44;;;;;;;26.48;7.78;;;11.50;97.90;;;;;;5050006;28;20044;-66
2021/09/01 06:37:10;;;;;;;30.27;7.05;;;11.50;98.00;;;;;;5050995;28;20090;-66
2021/09/01 06:39:36;;;;;;;16.13;6.95;;;11.50;97.70;;;;;;5032409;28;20017;-66
2021/09/01 06:42:01;;;;;;;13.98;7.97;;;11.50;97.80;;;;;;5050138;28;20102;-66
2021/09/01 06:44:27;;;;;;;14.27;8.35;;;11.60;98.00;;;;;;5049869;28;20362;-66
2021/09/01 06:46:53;;;;;;;10.55;7.88;;;11.70;98.10;;;;;;5049822;28;20051;-66
2021/09/01 06:49:18;;;;;;;15.23;8.80;;;11.70;98.10;;;;;;5050855;28;20025;-67
2021/09/01 06:51:44;;;;;;;11.75;8.00;;;11.80;98.00;;;;;;5050851;28;20477;-66
2021/09/01 06:54:09;;;;;;;15.85;8.48;;;11.90;98.10;;;;;;5050702;28;20090;-68
2021/09/01 06:56:35;;;;;;;13.73;8.52;;;12.00;98.10;;;;;;5049410;28;20033;-66
2021/09/01 06:59:01;;;;;;;16.23;8.35;;;12.10;98.10;;;;;;5049232;28;20029;-65
2021/09/01 07:01:26;;;;;;;17.25;8.55;;;12.10;98.10;;;;;;5050362;28;20013;-64
2021/09/01 07:03:54;;;;;;;14.15;8.63;;;12.20;98.00;;;;;;5050609;28;20546;-68
2021/09/01 07:06:20;;;;;;;13.07;8.98;;;12.30;97.90;;;;;;5049641;28;20028;-65
2021/09/01 07:08:46;;;;;;;11.25;8.02;;;12.40;98.00;;;;;;5032453;28;20029;-67
2021/09/01 07:11:12;;;;;;;14.98;8.25;;;12.40;98.00;;;;;;5050226;28;20435;-71
2021/09/01 07:13:37;;;;;;;12.65;8.20;;;12.50;98.00;;;;;;5041913;28;20681;-65
2021/09/01 07:16:03;;;;;;;11.60;7.68;;;12.50;98.00;;;;;;5035029;28;20021;-65
2021/09/01 07:18:29;;;;;;;13.60;7.72;;;12.60;98.00;;;;;;5050348;28;20062;-65
2021/09/01 07:20:55;;;;;;;15.02;8.15;;;12.70;98.00;;;;;;5050582;28;20078;-66
2021/09/01 07:23:20;;;;;;;11.82;7.75;;;12.70;98.00;;;;;;5050215;28;20028;-69
2021/09/01 07:25:46;;;;;;;11.00;8.02;;;12.80;98.00;;;;;;5049023;28;20488;-73
2021/09/01 07:28:12;;;;;;;11.00;7.68;;;12.90;98.00;;;;;;5050063;28;20096;-66
2021/09/01 07:30:38;;;;;;;16.35;8.80;;;13.10;97.90;;;;;;5045015;28;20068;-67
2021/09/01 07:33:03;;;;;;;12.15;8.85;;;13.20;97.80;;;;;;5045016;28;20036;-66
2021/09/01 07:35:29;;;;;;;12.07;8.65;;;13.30;97.70;;;;;;5049407;28;20029;-67
2021/09/01 07:37:55;;;;;;;14.38;10.23;;;13.40;97.70;;;;;;5051200;28;20021;-72
2021/09/01 07:40:22;;;;;;;13.38;9.40;;;13.60;97.80;;;;;;5053497;28;20029;-66
2021/09/01 07:42:48;;;;;;;13.38;9.43;;;13.60;97.70;;;;;;5036208;28;20032;-66
2021/09/01 07:45:15;;;;;;;14.02;9.30;;;13.80;97.70;;;;;;5052999;28;20033;-66
2021/09/01 07:47:52;;;;;;;13.40;9.77;;;13.80;97.60;;;;;;5054274;28;20029;-69
2021/09/01 07:50:19;;;;;;;14.00;10.32;;;13.90;97.60;;;;;;5054053;28;20048;-65
2021/09/01 07:52:45;;;;;;;16.35;10.50;;;14.10;97.60;;;;;;5054140;28;20447;-70
2021/09/01 07:55:13;;;;;;;17.10;11.60;;;14.30;97.60;;;;;;5052907;28;20029;-69
2021/09/01 07:57:39;;;;;;;18.60;12.27;;;14.50;97.50;;;;;;5053700;28;20021;-66
2021/09/01 08:00:09;;;;;;;18.00;11.25;;;14.70;97.20;;;;;;5053567;28;20029;-66
2021/09/01 08:02:35;;;;;;;14.63;10.02;;;15.00;97.20;;;;;;5053860;28;20025;-65
2021/09/01 08:05:01;;;;;;;13.20;9.60;;;15.50;97.10;;;;;;5051681;28;20400;-66
2021/09/01 08:07:27;;;;;;;15.23;9.50;;;16.00;96.70;;;;;;5053551;28;20036;-67
2021/09/01 08:09:52;;;;;;;15.30;9.25;;;16.70;96.20;;;;;;5069078;22;20037;-66
2021/09/01 08:12:18;;;;;;;12.63;8.32;;;17.30;95.30;;;;;;5049814;28;20032;-69
2021/09/01 08:14:44;;;;;;;12.43;8.90;;;17.90;94.50;;;;;;5039404;28;20021;-69
2021/09/01 08:17:10;;;;;;;12.40;8.73;;;18.60;93.70;;;;;;5053334;28;20022;-68
2021/09/01 08:19:35;;;;;;;12.15;7.93;;;19.20;92.90;;;;;;5035602;28;20032;-70
2021/09/01 08:22:01;;;;;;;10.52;7.15;;;19.80;92.20;;;;;;5037181;28;20462;-69
2021/09/01 08:24:27;;;;;;;9.27;7.15;;;20.30;91.50;;;;;;5025171;28;20048;-68
2021/09/01 08:26:53;;;;;;;9.27;6.85;;;20.70;90.80;;;;;;5052337;28;20032;-70
2021/09/01 08:29:18;;;;;;;11.88;7.10;;;21.20;90.30;;;;;;5042942;28;20028;-69
2021/09/01 08:31:44;;;;;;;7.60;6.13;;;21.50;89.60;;;;;;5030745;28;20033;-67
2021/09/01 08:34:09;;;;;;;7.65;6.47;;;21.60;88.80;;;;;;5043943;28;20032;-69
2021/09/01 08:36:35;;;;;;;7.68;6.18;;;21.80;89.00;;;;;;5052007;28;20029;-69
2021/09/01 08:39:00;;;;;;;7.97;5.65;;;21.90;89.00;;;;;;5051303;28;20020;-69
2021/09/01 08:41:27;;;;;;;11.35;6.75;;;21.90;88.90;;;;;;5052877;28;20519;-68
2021/09/01 08:43:56;;;;;;;6.63;5.72;;;21.80;89.30;;;;;;5050689;28;20485;-69
2021/09/01 08:46:22;;;;;;;9.35;5.68;;;21.70;89.80;;;;;;5052052;28;20037;-70
2021/09/01 08:48:50;;;;;;;8.60;6.10;;;21.80;90.30;;;;;;5034493;28;20029;-70
2021/09/01 08:51:16;;;;;;;7.88;6.47;;;21.90;90.30;;;;;;5032890;28;20529;-70
2021/09/01 08:53:43;;;;;;;100.43;73.47;;;22.00;90.30;;;;;;5032888;28;20104;-70
2021/09/01 08:56:09;;;;;;;12.45;8.60;;;22.20;90.30;;;;;;5032256;28;20070;-71
2021/09/01 08:58:34;;;;;;;6.38;5.60;;;22.30;89.80;;;;;;5033735;28;20030;-70
2021/09/01 09:01:00;;;;;;;7.40;5.55;;;22.30;89.90;;;;;;5051071;28;20393;-71
2021/09/01 09:03:26;;;;;;;5.32;4.80;;;22.40;89.80;;;;;;5053465;28;20032;-69
2021/09/01 09:05:52;;;;;;;7.63;4.82;;;22.50;89.40;;;;;;5051516;28;20489;-68
2021/09/01 09:08:17;;;;;;;4.00;3.60;;;22.50;88.40;;;;;;5034516;28;20076;-68
2021/09/01 09:10:45;;;;;;;4.50;4.10;;;22.50;87.60;;;;;;5046013;28;20033;-66
2021/09/01 09:13:24;;;;;;;9.18;3.90;;;22.50;86.70;;;;;;5051628;28;20048;-71
2021/09/01 09:16:03;;;;;;;4.10;3.67;;;22.40;87.10;;;;;;5050754;28;20111;-71
2021/09/01 09:18:30;;;;;;;3.97;3.42;;;22.40;87.20;;;;;;5034585;28;20425;-69
2021/09/01 09:21:10;;;;;;;4.03;3.33;;;22.40;87.60;;;;;;5052387;28;20020;-68
2021/09/01 09:23:35;;;;;;;5.47;3.28;;;22.50;86.20;;;;;;5034338;28;20381;-66
2021/09/01 09:26:28;;;;;;;3.20;2.88;;;22.50;85.90;;;;;;5032172;28;20036;-69
2021/09/01 09:29:12;;;;;;;5.63;3.20;;;22.40;84.80;;;;;;5031703;28;20044;-65
2021/09/01 09:31:40;;;;;;;5.15;3.25;;;22.40;85.40;;;;;;5045223;28;20036;-68
2021/09/01 09:34:11;;;;;;;3.88;3.00;;;22.40;85.20;;;;;;5051832;28;20039;-65
2021/09/01 09:36:38;;;;;;;4.25;3.55;;;22.40;84.20;;;;;;5033223;28;20115;-69
2021/09/01 09:39:04;;;;;;;3.97;3.40;;;22.50;84.80;;;;;;5029423;28;20029;-69
2021/09/01 09:41:30;;;;;;;4.20;3.53;;;22.60;83.90;;;;;;5044286;28;20074;-68
2021/09/01 09:43:58;;;;;;;4.15;3.75;;;22.60;83.00;;;;;;5033618;28;20029;-68
2021/09/01 09:46:25;;;;;;;4.45;3.15;;;22.30;83.00;;;;;;5032747;28;20035;-66
2021/09/01 09:48:52;;;;;;;3.97;3.22;;;22.20;83.10;;;;;;5051741;28;20013;-68
2021/09/01 09:51:41;;;;;;;38.70;28.65;;;22.20;83.50;;;;;;5051708;28;20017;-69
2021/09/01 09:54:33;;;;;;;6.65;4.28;;;22.30;83.50;;;;;;5051231;28;20029;-70
2021/09/01 09:57:08;;;;;;;4.78;4.10;;;22.40;83.70;;;;;;5013297;28;20175;-70
2021/09/01 09:59:34;;;;;;;5.25;4.10;;;22.60;83.70;;;;;;5031574;28;20064;-69
2021/09/01 10:02:00;;;;;;;6.72;4.00;;;22.60;83.90;;;;;;5049010;28;20052;-70
2021/09/01 10:04:27;;;;;;;3.97;3.53;;;22.50;83.70;;;;;;5051546;28;20056;-69
2021/09/01 10:06:53;;;;;;;3.90;3.47;;;22.40;83.20;;;;;;5050707;28;20033;-70
2021/09/01 10:09:19;;;;;;;6.45;3.28;;;22.40;82.40;;;;;;5050762;28;20040;-69
2021/09/01 10:11:46;;;;;;;4.60;3.78;;;22.30;82.70;;;;;;5036396;28;20037;-67
2021/09/01 10:14:17;;;;;;;4.93;3.85;;;22.30;82.50;;;;;;5021939;28;20025;-69
2021/09/01 10:16:48;;;;;;;6.75;3.35;;;22.00;81.50;;;;;;5055577;28;20515;-68
2021/09/01 10:19:17;;;;;;;5.07;3.50;;;21.80;81.20;;;;;;5051344;28;20021;-70
2021/09/01 10:21:51;;;;;;;3.65;2.95;;;21.60;80.80;;;;;;5033164;28;20036;-67
2021/09/01 10:24:31;;;;;;;6.28;3.40;;;21.40;80.40;;;;;;5033715;28;20051;-69
2021/09/01 10:27:00;;;;;;;6.93;3.40;;;21.20;80.50;;;;;;5032345;28;20087;-67
2021/09/01 10:29:47;;;;;;;5.28;3.30;;;21.20;81.70;;;;;;5051002;28;20032;-69
2021/09/01 10:32:22;;;;;;;4.22;3.47;;;21.00;80.90;;;;;;5032774;28;20037;-68
2021/09/01 10:34:48;;;;;;;3.53;3.00;;;20.90;80.40;;;;;;5031939;28;20086;-69
2021/09/01 10:37:39;;;;;;;5.63;2.83;;;20.80;81.00;;;;;;5032994;28;20086;-69
2021/09/01 10:40:20;;;;;;;4.18;3.13;;;20.90;81.30;;;;;;5023674;28;20061;-70
2021/09/01 10:42:48;;;;;;;3.80;3.17;;;20.90;80.60;;;;;;5051057;28;20108;-70
2021/09/01 10:45:16;;;;;;;5.70;3.00;;;20.90;81.10;;;;;;5049560;28;20026;-70
2021/09/01 10:48:00;;;;;;;7.30;3.15;;;20.90;80.70;;;;;;5029639;28;20025;-71
2021/09/01 10:50:45;;;;;;;4.00;2.90;;;20.80;79.90;;;;;;5033693;28;21777;-67
2021/09/01 10:53:23;;;;;;;4.43;3.00;;;21.00;80.70;;;;;;5050568;28;20032;-69
2021/09/01 10:55:56;;;;;;;4.30;2.78;;;21.20;80.20;;;;;;5033357;28;20026;-69
2021/09/01 10:58:52;;;;;;;4.22;2.80;;;21.20;79.40;;;;;;5030461;28;20362;-68
2021/09/01 11:01:22;;;;;;;3.95;3.17;;;21.30;79.80;;;;;;5015653;28;20037;-68
2021/09/01 11:03:54;;;;;;;4.50;3.50;;;21.40;80.70;;;;;;5025498;28;20120;-70
2021/09/01 11:06:24;;;;;;;;;;;21.40;80.70;;;;;;5050607;28;20041;-67
2021/09/01 11:09:00;;;;;;;3.88;2.97;;;21.30;81.70;;;;;;5048760;28;19905;-69
2021/09/01 11:11:45;;;;;;;4.25;3.65;;;21.20;81.20;;;;;;5048542;28;20087;-69
2021/09/01 11:14:13;;;;;;;4.50;3.30;;;21.10;81.00;;;;;;5054626;28;20035;-69
2021/09/01 11:16:39;;;;;;;3.85;3.13;;;21.00;81.80;;;;;;5053146;28;20029;-69
2021/09/01 11:19:10;;;;;;;4.18;3.33;;;21.00;82.00;;;;;;5053910;28;20477;-70
2021/09/01 11:21:44;;;;;;;3.65;2.95;;;20.90;82.20;;;;;;5054411;28;20495;-69
2021/09/01 11:24:15;;;;;;;3.65;3.00;;;21.00;81.40;;;;;;5047863;28;20095;-70
2021/09/01 11:26:41;;;;;;;4.25;3.13;;;20.90;81.90;;;;;;5033198;28;20087;-64
2021/09/01 11:29:08;;;;;;;3.55;3.20;;;20.90;81.90;;;;;;5043936;28;20029;-66
2021/09/01 11:31:44;;;;;;;4.60;3.00;;;20.90;82.20;;;;;;5053923;28;20029;-69
2021/09/01 11:34:14;;;;;;;4.65;3.50;;;20.90;82.20;;;;;;5053914;28;20116;-70
2021/09/01 11:36:41;;;;;;;3.92;3.17;;;21.00;82.10;;;;;;5052951;28;20036;-70
2021/09/01 11:39:08;;;;;;;3.72;2.88;;;21.10;81.90;;;;;;5052543;28;20142;-69
2021/09/01 11:41:34;;;;;;;4.07;3.45;;;21.20;81.30;;;;;;5053740;28;20025;-70
2021/09/01 11:44:05;;;;;;;8.82;3.08;;;21.30;81.90;;;;;;5053659;28;20024;-69
2021/09/01 11:46:34;;;;;;;4.80;3.30;;;21.50;81.50;;;;;;5034796;28;20057;-70
2021/09/01 11:49:11;;;;;;;4.00;3.38;;;21.70;81.50;;;;;;5053710;28;20039;-70
2021/09/01 11:51:39;;;;;;;5.55;3.03;;;21.90;79.50;;;;;;5053941;28;20036;-70
2021/09/01 11:54:06;;;;;;;4.35;3.10;;;21.90;79.40;;;;;;5025529;28;20059;-70
2021/09/01 11:56:32;;;;;;;3.72;3.22;;;22.10;79.70;;;;;;5016823;28;20048;-69
2021/09/01 11:59:06;;;;;;;3.75;2.90;;;22.20;80.00;;;;;;5053510;28;20461;-69
2021/09/01 12:01:43;;;;;;;4.75;3.30;;;22.30;78.90;;;;;;5053544;28;20167;-69
2021/09/01 12:04:10;;;;;;;3.95;2.92;;;22.40;78.50;;;;;;5042651;28;20096;-70
2021/09/01 12:06:44;;;;;;;7.80;3.25;;;22.50;79.10;;;;;;5017200;28;20025;-69
2021/09/01 12:09:13;;;;;;;4.78;2.90;;;22.60;78.40;;;;;;5047916;28;20443;-70
2021/09/01 12:11:56;;;;;;;8.32;3.13;;;22.50;78.20;;;;;;5053217;28;20441;-69
2021/09/01 12:14:25;;;;;;;3.97;2.63;;;22.40;77.80;;;;;;5035233;28;20021;-69
2021/09/01 12:16:52;;;;;;;5.63;3.05;;;22.30;77.60;;;;;;5032924;28;20021;-69
2021/09/01 12:19:20;;;;;;;4.60;2.92;;;22.40;77.10;;;;;;5053305;28;20515;-67
2021/09/01 12:21:55;;;;;;;3.17;2.65;;;22.40;76.90;;;;;;5053104;28;20441;-70
2021/09/01 12:24:23;;;;;;;4.13;3.20;;;22.60;77.60;;;;;;5052089;28;20025;-68
2021/09/01 12:26:53;;;;;;;5.15;2.88;;;22.80;76.90;;;;;;5051682;28;20031;-70
2021/09/01 12:29:52;;;;;;;5.30;2.85;;;22.90;76.80;;;;;;5053116;28;20081;-67
2021/09/01 12:32:20;;;;;;;3.15;2.55;;;23.00;76.10;;;;;;5049243;28;20462;-69
2021/09/01 12:34:53;;;;;;;4.22;2.17;;;23.10;75.60;;;;;;5051953;28;20041;-70
2021/09/01 12:37:24;;;;;;;35.70;25.02;;;23.20;74.20;;;;;;5034483;28;20483;-67
2021/09/01 12:39:52;;;;;;;3.67;3.30;;;23.30;75.50;;;;;;5052817;28;20021;-70
2021/09/01 12:42:40;;;;;;;5.65;4.32;;;23.40;75.00;;;;;;5052412;28;20025;-69
2021/09/01 12:45:14;;;;;;;3.35;2.78;;;23.60;75.30;;;;;;5051717;28;20029;-69
2021/09/01 12:47:54;;;;;;;4.63;2.50;;;23.70;74.50;;;;;;5034757;28;20061;-70